Sponsor Message:
Civil Aviation Forum
My Starred Topics | Profile | New Topic | Forum Index | Help | Search 
Traveling Thru CLE 12-19? Expect Delays  
User currently offlineFalcon84 From , joined Dec 1969, posts, RR:
Posted (10 years 5 days 15 hours ago) and read 1842 times:

For the second week in a row, CLE is expecting a major snowstorm to come through on Sunday the 19th. CLE is expecting up to a foot of snow between Saturday night and Sunday night.

So if you're traveling to CLE, and, more importantly, if your connecting on CO thru CLE, better call the airline and check on your flights and look for a possible reroute via EWR or IAH.

Let it snow......

21 replies: All unread, jump to last
 
User currently offlineNewark777 From United States of America, joined Dec 2004, 9348 posts, RR: 29
Reply 1, posted (10 years 5 days 15 hours ago) and read 1821 times:

All I know is that there is a possibility of a snow day in New Jersey on Monday!  Smile/happy/getting dizzy


Why grab a Heine when you can grab a Busch?
User currently offlineUsairways16bwi From United States of America, joined May 2004, 1004 posts, RR: 4
Reply 2, posted (10 years 5 days 15 hours ago) and read 1805 times:

Falcon84 : ok..thats exactly me...but not on those dates. im connecting on CO in CLE on the morning of the 23rd, know what i should expect then??

User currently offlineSwadispatcher From United States of America, joined May 2004, 427 posts, RR: 9
Reply 3, posted (10 years 5 days 12 hours ago) and read 1773 times:

Glad I'm not working any flights into/out of CLE tomorrow.. my pilot friend at CoEx says it's going to be fugly.. the forecast calls for north winds gusting up to 24 and the lake's not frozen over yet.. prime for the lake-effect machine!


Maintain 2300 until Boiler, cleared for the VOR-A approach, report BATLE inbound..
User currently offlineFalcon84 From , joined Dec 1969, posts, RR:
Reply 4, posted (10 years 5 days 5 hours ago) and read 1744 times:

USAirways16bwi, expect snow showers on and off during the day.

Well, it was 40 when I went to bed, and it's down to 14 degrees now, with a brisk wind. It's currenty snowing pretty steadily at the airport, so I'm glad I'm not 1. at work at the airport, or 2. dumb enough to be going to the Browns-Chargers game today (for a lot of reasons).  Big grin


User currently offlineUsairways16bwi From United States of America, joined May 2004, 1004 posts, RR: 4
Reply 5, posted (10 years 5 days 3 hours ago) and read 1713 times:

ok thanx....ill be prepared for delays. lol

User currently offlineN766UA From United States of America, joined Jul 1999, 8374 posts, RR: 23
Reply 6, posted (10 years 5 days 2 hours ago) and read 1699 times:

Ha! I called it last night. What'd we get, 2 inches? Foot my arse.  Big thumbs up Given that we didn't get half of what they called for and that the snow removal guys at CLE are awesome at what they do, I wouldn't be too worried about delays except for a few ground stops here 'n there.



[Edited 2004-12-19 19:08:44]


This Website Censors Me
User currently offlineOptionsCLE From United States of America, joined Jun 2004, 467 posts, RR: 0
Reply 7, posted (10 years 5 days ago) and read 1662 times:

Well they are now saying that we can expect 12-18 inches of snow today. Out east of the city of Cleveland we have at least a foot and a half already.

-Andrew


User currently offlineN766UA From United States of America, joined Jul 1999, 8374 posts, RR: 23
Reply 8, posted (10 years 5 days ago) and read 1658 times:

Well, someone might get hosed but CLE only has 4 inches according to NOAA. Where I live we have about 3. That having been said, the windchill is -26 lol.


This Website Censors Me
User currently offlineN766UA From United States of America, joined Jul 1999, 8374 posts, RR: 23
Reply 9, posted (10 years 4 days 22 hours ago) and read 1630 times:

Okay I take that back, we've had an inbound groundstop for what... 4 hours now? We only have about 4-5 inches of snow but it has yet to stop (dunno where it's coming from I can see the sun through the snow so there can't be many clouds) and the temp is killing us.


This Website Censors Me
User currently offlineSwadispatcher From United States of America, joined May 2004, 427 posts, RR: 9
Reply 10, posted (10 years 4 days 18 hours ago) and read 1586 times:

LUV that lake-effect ...


Maintain 2300 until Boiler, cleared for the VOR-A approach, report BATLE inbound..
User currently offlineOPNLguy From , joined Dec 1969, posts, RR:
Reply 11, posted (10 years 4 days 18 hours ago) and read 1574 times:

>>>LUV that lake-effect ...

Lake? What's the lake got do with it?  Nuts

(Place your bets...)


User currently offlineUsairways16bwi From United States of America, joined May 2004, 1004 posts, RR: 4
Reply 12, posted (10 years 4 days 18 hours ago) and read 1565 times:

speaking of CLE, whats that airport like? i never been there. Any good places to spot from the terminals?

User currently offlineN766UA From United States of America, joined Jul 1999, 8374 posts, RR: 23
Reply 13, posted (10 years 4 days 16 hours ago) and read 1546 times:

We used to have an observation deck, now it's closed. We still have the inside part on the end of B which is alright but not the same.


This Website Censors Me
User currently offlineMasseyBrown From United States of America, joined Dec 2002, 5601 posts, RR: 7
Reply 14, posted (10 years 4 days 14 hours ago) and read 1524 times:

http://www.clevelandairport.com/about/news_details.asp?id=114123122&vd=114121102112112115121098100

In the link CLE brags that they have never closed because of weather since the new runway opened two years ago.

Now that they have bragged about it, count on the mother of all snow storms shutting them down for a week.  Smile



I love long German words like 'Freundschaftsbezeigungen'.
User currently offlineFalcon84 From , joined Dec 1969, posts, RR:
Reply 15, posted (10 years 4 days 14 hours ago) and read 1519 times:

MasseyBrown, Hopkins doesn't even admit to having delays, even if the snow is coming down in droves! Last monday, I didn't work, but I found out on Tuesday there were tons of delays, but on the news Monday night, you couldn't have figured that out, because the brass at Hopkins said there had been nary a delay all day.  Big grin

Don't you love PR?


User currently offlineOPNLguy From , joined Dec 1969, posts, RR:
Reply 16, posted (10 years 4 days 13 hours ago) and read 1503 times:

The last 24 hour's worth... At least they're not forecast for any more past mid-morning on Monday...

KCLE 200555Z 31009KT 3SM -SN BKN025 OVC032 M12/M16 A3015 RMK AO2 P0000 $
KCLE 200551Z 30011KT 4SM -SN SCT025 OVC032 M12/M16 A3015 RMK AO2 CIG 027 NE SLP225 P0000 60000 931000 4/006 8/5// T11171161 11117 21122 58012 $
KCLE 200451Z 31011KT 4SM -SN BLSN FEW022 OVC031 M12/M16 A3016 RMK AO2 SLP230 PCPN VRY LGT P0000 T11221161 400281122 $
KCLE 200410Z 31013KT 2SM -SN BLSN FEW016 OVC029 M12/M16 A3017 RMK AO2 PCPN VRY LGT P0000 $
KCLE 200402Z 33009KT 3SM -SN BLSN FEW016 OVC029 M12/M16 A3018 RMK AO2 PCPN VRY LGT P0000 $
KCLE 200355Z 32011KT 3SM -SN BLSN FEW024 SCT029 OVC034 M12/M17 A3018 RMK AO2 P0000 $
KCLE 200351Z 33015KT 3SM -SN BLSN FEW024 BKN029 OVC037 M12/M16 A3018 RMK AO2 SLP235 PCPN VRY LGT P0000 T11221161 $
KCLE 200336Z 33014G20KT 3SM -SN BLSN BKN027 OVC035 M12/M16 A3019 RMK AO2 PCPN VRY LGT P0000 $
KCLE 200332Z 33012KT 3SM -SN BLSN SCT027 BKN033 OVC041 M12/M16 A3019 RMK AO2 PCPN VRY LGT P0000 $
KCLE 200318Z 32016G20KT 2SM -SN BLSN FEW025 BKN035 OVC042 M12/M17 A3018 RMK AO2 PCPN VRY LGT P0000 $
KCLE 200251Z COR 33014KT 3SM -SN BLSN FEW025 OVC034 M12/M17 A3018 RMK AO2 SLP237 8/5// PCPN VRY LGT P0000 60000 T11171167 50002 $
KCLE 200218Z 34013G19KT 6SM -SN BLSN SCT023 BKN030 OVC047 M12/M17 A3019 RMK AO2 P0000 $
KCLE 200151Z 33014G21KT 2 1/2SM -SN BLSN SCT019 BKN025 OVC045 M12/M16 A3019 RMK AO2 SLP237 P0000 T11221161 $
KCLE 200122Z 34011G18KT 2 1/2SM -SN BLSN BKN025 BKN032 OVC046 M12/M17 A3018 RMK AO2 P0000 $
KCLE 200105Z 33012KT 5SM -SN BLSN SCT023 BKN035 OVC049 M12/M17 A3018 RMK AO2 P0000 $
KCLE 200051Z 34013KT 3SM -SN BLSN BKN019 BKN030 OVC049 M12/M16 A3018 RMK AO2 SLP237 P0000 T11221161 $
KCLE 200025Z 32015G25KT 1/2SM -SN BLSN FEW009 BKN022 OVC047 M12/M16 A3018 RMK AO2 SFC VIS 3/4 P0000 $
KCLE 200011Z 33013G23KT 1/2SM -SN BLSN FEW008 BKN013 OVC033 M12/M16 A3018 RMK AO2 SFC VIS 1 P0000 $
KCLE 192351Z 32018G24KT 1/2SM SN BLSN BKN007 BKN020 OVC026 M12/M15 A3018 RMK AO2 SLP234 8/7// P0001 60004 931014 4/006 T11221150 11106 21122 51024 $
KCLE 192338Z 34017G22KT 1/2SM -SN BLSN FEW010 BKN017 OVC033 M12/M15 A3017 RMK AO2 SFC VIS 3/4 P0000 $
KCLE 192329Z 34015G21KT 1/2SM -SN BLSN BKN013 BKN020 OVC031 M12/M15 A3017 RMK AO2 SFC VIS 3/4 P0000 $
KCLE 192253Z 34017G22KT 1/2SM -SN BLSN SCT010 OVC022 M12/M15 A3016 RMK AO2 SFC VIS 1 CIG 014 NE P0000 $
KCLE 192251Z 33017G20KT 1/2SM -SN BLSN BKN006 OVC018 M12/M15 A3016 RMK AO2 SFC VIS 3/4 SLP225 P0001 T11171150 $
KCLE 192222Z 34018G22KT 1/2SM SN BLSN BKN008 OVC018 M12/M14 A3014 RMK AO2 P0000 $
KCLE 192212Z 35016KT 3/4SM -SN BLSN BKN010 OVC022 M12/M14 A3014 RMK AO2 P0000 $
KCLE 192151Z 34016G24KT 1/2SM SN BLSN BKN006 OVC020 M12/M15 A3013 RMK AO2 SLP217 P0000 T11171150 $
KCLE 192144Z 33017KT 1/4SM +SN BLSN BKN006 OVC020 M12/M14 A3013 RMK AO2 P0000 $
KCLE 192127Z 34015G21KT 1/2SM SN BLSN BKN014 OVC023 M12/M14 A3012 RMK AO2 P0000 $
KCLE 192115Z 33015KT 1 1/4SM -SN BLSN BKN016 OVC025 M11/M16 A3011 RMK AO2 P0000 $
KCLE 192101Z 34017G23KT 3/4SM -SN BLSN BKN012 OVC019 M12/M15 A3011 RMK AO2 P0000 $
KCLE 192051Z 34018G22KT 1/2SM SN BLSN BKN008 OVC021 M12/M14 A3011 RMK AO2 SLP207 P0001 60002 8/5// T11171144 53018 $
KCLE 192042Z 34013G20KT 1/2SM SN BLSN BKN014 OVC021 M11/M14 A3010 RMK AO2 P0000 $
KCLE 192031Z 34016G21KT 1/2SM SN BLSN BKN018 OVC023 M12/M15 A3010 RMK AO2 P0000 $
KCLE 192018Z 33014G20KT 1 1/4SM -SN BLSN BKN016 OVC027 M11/M16 A3009 RMK AO2 VIS 1/2V3 P0000 $
KCLE 192014Z 33013KT 1SM SN BLSN BKN014 OVC024 M11/M16 A3009 RMK AO2 VIS 1/2V2 P0000 $
KCLE 191951Z 33015KT 3/4SM -SN BLSN BKN013 OVC020 M11/M14 A3008 RMK AO2 SLP197 P0000 T11111144 $
KCLE 191851Z 32019G27KT 1/2SM SN BLSN BKN010 BKN017 OVC022 M11/M14 A3006 RMK AO2 PK WND 33027/1842 SLP190 P0000 T11111144 $
KCLE 191838Z 34013G21KT 1/2SM SN BLSN SCT008 OVC020 M11/M14 A3006 RMK AO2 P0000 $
KCLE 191824Z 34016G21KT 3/4SM -SN BLSN BKN010 OVC020 M11/M14 A3006 RMK AO2 P0000 $
KCLE 191751Z 34013G21KT 1/2SM SN BLSN BKN006 OVC015 M11/M13 A3005 RMK AO2 SLP188 SNINCR 1/6 P0000 60012 931035 933006 4/006 T11111133 11067 21111 51011 $
KCLE 191715Z 32015G24KT 3/4SM -SN BLSN BKN008 OVC017 M11/M14 A3005 RMK AO2 P0000 $
KCLE 191651Z COR 32016G24KT 1/2SM SN BLSN BKN006 OVC015 M11/M14 A3005 RMK AO2 PK WND 32026/1554 SLP188 P0000 T11111139 $
KCLE 191551Z 33016KT 1/2SM SN BLSN BKN008 OVC016 M11/M13 A3005 RMK AO2 SLP185 P0001 T11061133 $
KCLE 191516Z 31015KT 1/4SM +SN BLSN VV004 M10/M12 A3003 RMK AO2 P0000 $
KCLE 191451Z 33018G23KT 1/2SM SN BLSN VV006 M10/M12 A3002 RMK AO2 PK WND 34027/1430 SLP175 SNINCR 1/5 P0000 60008 T11001122 53031 $
KCLE 191440Z 33017G21KT 1/2SM SN BLSN BKN005 OVC015 M10/M12 A3001 RMK AO2 PK WND 34027/1430 P0000 $
KCLE 191421Z 33020G24KT 1/4SM +SN BLSN VV004 M09/M12 A3001 RMK AO2 P0000 $
KCLE 191351Z 32015G21KT 3/4SM SN BLSN BKN006 OVC014 M09/M11 A2998 RMK AO2 PK WND 32027/1323 SLP162 SNINCR 1/4 P0000 T10891111 $
KCLE 191336Z 33016G23KT 1/2SM SN BLSN VV004 M09/M11 A2998 RMK AO2 PK WND 32027/1323 P0000 $
KCLE 191324Z 32021G27KT 3/4SM -SN BLSN VV005 M08/M11 A2997 RMK AO2 PK WND 32027/1323 P0000 $
KCLE 191307Z 33015G23KT 1SM -SN BLSN VV007 M08/M11 A2997 RMK AO2 P0000 $
KCLE 191251Z 33021G24KT 3/4SM -SN BLSN BKN005 OVC014 M08/M11 A2995 RMK AO2 PK WND 33026/1232 SLP152 SNINCR 1/3 P0001 T10831106 $
KCLE 191226Z 34015G21KT 3/4SM +SN BR BKN005 OVC014 M07/M09 A2995 RMK AO2 P0001 $
KCLE 191213Z 33018G23KT 3/4SM +SN BR BKN003 OVC014 M07/M09 A2994 RMK AO2 P0001 $
KCLE 191151Z 33014G22KT 3/4SM +SN BR BKN005 BKN012 OVC019 M07/M09 A2992 RMK AO2 SLP142 SNINCR 1/2 4/002 931023 P0000 60013 70015 T10671089 10022 21067 51034 $
KCLE 191127Z 34015G23KT 1 1/4SM -SN BR BKN005 OVC015 M07/M09 A2991 RMK AO2 P0000 $
KCLE 191116Z 34015G23KT 3/4SM -SN BR BKN005 BKN012 OVC019 M06/M08 A2991 RMK AO2 P0000 $
KCLE 191051Z 33016G24KT 1SM -SN BR SCT004 BKN013 OVC020 M06/M08 A2990 RMK AO2 SLP132 P0000 T10561078 $
KCLE 191028Z 33017G22KT 3/4SM -SN BR FEW004 BKN012 OVC019 M05/M07 A2988 RMK AO2 P0000 $
KCLE 191025Z 35016KT 1SM -SN BR FEW011 OVC014 M04/M07 A2988 RMK AO2 P0000
KCLE 190951Z COR 35019G24KT 1 1/4SM -BLSN SG BKN010 OVC015 M03/M05 A2986 RMK AO2 CIG 007V012 SLP120 P0003 T10331050
KCLE 190936Z 34014KT 1 1/2SM -SN BR BKN010 OVC017 M03/M04 A2985 RMK AO2 CIG 007V013 P0002
KCLE 190918Z 33013G19KT 1 1/2SM -SN BR FEW009 BKN015 OVC020 M02/M04 A2984 RMK AO2 P0001
KCLE 190913Z 35013G19KT 2 1/2SM -SN BR BKN013 OVC018 M02/M04 A2984 RMK AO2 P0000
KCLE 190851Z 34018G25KT 4SM -SN BR OVC011 M02/M03 A2982 RMK AO2 SLP105 8/5// P0000 60004 T10171033 53020
KCLE 190751Z 34014G21KT 4SM -SN BR BKN009 BKN014 OVC025 00/M02 A2979 RMK AO2 CIG 007V013 SLP093 P0004 T00001017
KCLE 190739Z 33017G22KT 2 1/2SM -SN BR FEW011 BKN015 OVC025 01/M02 A2978 RMK AO2 P0002
KCLE 190651Z 28008KT 5SM -SN BR SCT013 OVC026 02/M01 A2976 RMK AO2 SLP084 PCPN VRY LGT RAE33SNB33 P0000 T00171006

KCLE 200535Z 200606 31009KT 3SM -SN BLSN FEW015 OVC030
TEMPO 0609 1SM -SN BLSN BKN015
FM0900 32010KT 5SM -SN BLSN SCT015 OVC030
TEMPO 0912 2SM -SN BLSN BKN015
FM1200 29010KT 6SM -SN BLSN BKN035
FM1600 23011KT P6SM SCT035 BKN120
FM2100 20012KT P6SM BKN080


User currently offlineN766UA From United States of America, joined Jul 1999, 8374 posts, RR: 23
Reply 17, posted (10 years 4 days 13 hours ago) and read 1502 times:

It is true, though, that CLE has not closed. Ground stops don't count, only the blue dot matters in that regard.


This Website Censors Me
User currently offlineFalcon84 From , joined Dec 1969, posts, RR:
Reply 18, posted (10 years 3 days 5 hours ago) and read 1457 times:

Well, here we go again!  Big grin

If you're traveling in Ohio-CVG, CMH, CLE, TOL, CAK on Wednesday the 22nd, it could be more fun for you. The NWS has issued a Winter Storm Watch for Wednesday and Wednesday night. 1 to 3 inches of snow for the day wednesday, and then wednesday afternoon till thursday morning, another 6 to 10 inches is possible. Also sleet and freezing rain is possible.

This is NOT what I wanted for the Christmas travel week.  Sad


User currently offlineElectraBob From United States of America, joined Sep 2003, 931 posts, RR: 3
Reply 19, posted (10 years 3 days 5 hours ago) and read 1445 times:

Falcon84 --

Thank you for keeping that mess South of the Detroit metro area....they were predicting 3-6" earlier in the week for Detroit....now its down to 1-2"...that means we'll probably get 5-10.  Smile

I have an uncle who lives East of the Cleveland area (Chardon)....they got 19 inches the other day. Ugh.



Having a smoking section in a restaurant is like having a peeing section in a swimming pool.....
User currently offlineFalcon84 From , joined Dec 1969, posts, RR:
Reply 20, posted (10 years 3 days 5 hours ago) and read 1441 times:

Interesting thing with this alleged storm upcoming, Bob, is that the west side, right now, is expecting more than the east side. Apparently, the east side will be on the warmer side of this system, at least to start with, and they could get snow changing to freezing rain. Out here about 30 miles west of CLE, we'll probably get all snow.

Well, the kids will be happy for Christmas at least, although Wednesday and Thursday could be fun working at Hopkins.  Sad


User currently offlineN766UA From United States of America, joined Jul 1999, 8374 posts, RR: 23
Reply 21, posted (10 years 2 days 23 hours ago) and read 1407 times:

NOAA says 8-16 inches of additional snow possible for Weds through Thurs. Also, temps are gunna fall. Man going from 4 degrees yesterday to 41 today is tropical!


This Website Censors Me
Top Of Page
Forum Index

This topic is archived and can not be replied to any more.

Printer friendly format

Similar topics:More similar topics...
Going To/Thru CLE 12-7? Heavy Snow Warning posted Thu Dec 7 2006 01:20:16 by Falcon84
Timetable (12/19/84 - 4/27/85) Any Questions? posted Sun Jun 4 2006 20:30:56 by Eastern1985
Ex Planet Airways 727 On The Move (12/19) posted Mon Dec 19 2005 23:36:02 by SCXmechanic
Mike Boyd's 12/19 DFW/AA Wright Comments posted Mon Dec 19 2005 02:56:19 by OPNLguy
Spirit Airlines Starts ORD-LAS Service On 12/19/02 posted Sat Nov 9 2002 20:56:41 by National_757
Snow Storm In Vancouver Expect Major Delays posted Mon Nov 27 2006 10:34:24 by Connector4you
Busiest Travel Day - Expect Flight Delays posted Wed Nov 22 2006 21:15:31 by N62NA
9/5: Vibrating Bag/Mad Pax Delays ORD-CLE Flight posted Tue Sep 5 2006 20:56:27 by 777fan
RegionsAir Delays BFD/JHW-CLE Service posted Sun Aug 27 2006 09:35:02 by MasseyBrown
CLE Diversions 2/12/06 posted Sun Feb 12 2006 19:06:28 by SWACLE